Terminal Aerodrome Forecast
Issued by NWS Nashville, TN

Home | Current Version | Previous Version | Text Only | Print | Product List | Glossary On
Versions: 1 2 3 4 5 6 7 8 9 10 11 12 13 14 15 16 17 18 19 20 21 22 23 24 25 26 27 28 29 30 31 32 33 34 35
913
FTUS44 KOHX 191723
TAFCSV
TAF
KCSV 191723Z 1918/2018 VRB03KT P6SM SCT045
     FM200800 00000KT 4SM BR SKC
     FM201000 00000KT 2SM BR SKC
     FM201300 14003KT P6SM SKC=

USA.gov is the U.S. government's official web portal to all federal, state and local government web resources and services.